Time,TemperatureF,DewpointF,PressureIn,WindDirection,WindDirectionDegrees,WindSpeedMPH,WindSpeedGustMPH,Humidity,HourlyPrecipIn,Conditions,Clouds,dailyrainin,SoftwareType,DateUTC
2013-05-12 00:09:00,46.6,42.0,30.04,NNW,345,0.0,1.0,83,0.00,,,0.00,weatherlink.com 1.10,2013-05-12 04:09:00,
2013-05-12 00:24:00,45.7,42.0,30.05,NNW,345,0.0,0.0,86,0.00,,,0.00,weatherlink.com 1.10,2013-05-12 04:24:00,
2013-05-12 00:39:00,44.4,41.0,30.05,NNW,344,0.0,0.0,89,0.00,,,0.00,weatherlink.com 1.10,2013-05-12 04:39:00,
2013-05-12 00:54:00,43.5,41.0,30.05,NNW,345,0.0,0.0,91,0.00,,,0.00,weatherlink.com 1.10,2013-05-12 04:54:00,
2013-05-12 01:09:00,42.9,41.0,30.06,NNW,344,0.0,0.0,93,0.00,,,0.00,weatherlink.com 1.10,2013-05-12 05:09:00,
2013-05-12 01:24:00,42.7,41.0,30.06,NNW,344,0.0,0.0,94,0.00,,,0.00,weatherlink.com 1.10,2013-05-12 05:24:00,
2013-05-12 01:39:00,42.7,41.0,30.06,WNW,295,0.0,0.0,95,0.00,,,0.00,weatherlink.com 1.10,2013-05-12 05:39:00,
2013-05-12 01:54:00,43.3,42.0,30.06,West,277,0.0,3.0,94,0.00,,,0.00,weatherlink.com 1.10,2013-05-12 05:54:00,
2013-05-12 02:09:00,43.3,42.0,30.06,West,276,0.0,0.0,93,0.00,,,0.00,weatherlink.com 1.10,2013-05-12 06:09:00,
2013-05-12 02:24:00,42.9,41.0,30.06,West,277,0.0,0.0,93,0.00,,,0.00,weatherlink.com 1.10,2013-05-12 06:24:00,
2013-05-12 02:39:00,42.4,41.0,30.06,West,277,0.0,0.0,93,0.00,,,0.00,weatherlink.com 1.10,2013-05-12 06:39:00,
2013-05-12 02:54:00,41.9,40.0,30.05,West,277,0.0,0.0,94,0.00,,,0.00,weatherlink.com 1.10,2013-05-12 06:54:00,
2013-05-12 03:09:00,42.0,41.0,30.06,West,274,0.0,0.0,95,0.00,,,0.00,weatherlink.com 1.10,2013-05-12 07:09:00,
2013-05-12 03:24:00,42.3,41.0,30.06,West,281,0.0,1.0,95,0.00,,,0.00,weatherlink.com 1.10,2013-05-12 07:24:00,
2013-05-12 03:39:00,42.5,41.0,30.06,West,278,0.0,1.0,94,0.00,,,0.00,weatherlink.com 1.10,2013-05-12 07:39:00,
2013-05-12 03:54:00,42.3,41.0,30.06,WSW,253,0.0,0.0,94,0.00,,,0.00,weatherlink.com 1.10,2013-05-12 07:54:00,
2013-05-12 04:09:00,41.8,40.0,30.06,West,276,0.0,0.0,94,0.00,,,0.00,weatherlink.com 1.10,2013-05-12 08:09:00,
2013-05-12 04:24:00,42.0,40.0,30.06,NW,312,0.0,2.0,94,0.00,,,0.00,weatherlink.com 1.10,2013-05-12 08:24:00,
2013-05-12 04:39:00,42.1,40.0,30.06,West,274,0.0,2.0,93,0.00,,,0.00,weatherlink.com 1.10,2013-05-12 08:39:00,
2013-05-12 04:54:00,41.9,40.0,30.06,West,280,0.0,1.0,93,0.00,,,0.00,weatherlink.com 1.10,2013-05-12 08:54:00,
2013-05-12 05:09:00,41.9,40.0,30.06,West,279,0.0,1.0,93,0.00,,,0.00,weatherlink.com 1.10,2013-05-12 09:09:00,
2013-05-12 05:24:00,41.7,40.0,30.06,WNW,285,0.0,2.0,92,0.00,,,0.00,weatherlink.com 1.10,2013-05-12 09:24:00,
2013-05-12 05:39:00,41.6,40.0,30.06,WNW,286,0.0,2.0,92,0.00,,,0.00,weatherlink.com 1.10,2013-05-12 09:39:00,
2013-05-12 05:54:00,41.6,39.0,30.07,West,269,0.0,3.0,91,0.00,,,0.00,weatherlink.com 1.10,2013-05-12 09:54:00,
2013-05-12 06:09:00,41.2,39.0,30.07,West,277,0.0,2.0,91,0.00,,,0.00,weatherlink.com 1.10,2013-05-12 10:09:00,
2013-05-12 06:25:00,40.8,39.0,30.07,West,277,0.0,1.0,92,0.00,,,0.00,weatherlink.com 1.10,2013-05-12 10:25:00,
2013-05-12 06:40:00,40.3,39.0,30.08,WNW,283,0.0,0.0,93,0.00,,,0.00,weatherlink.com 1.10,2013-05-12 10:40:00,
2013-05-12 06:55:00,40.5,39.0,30.08,West,278,0.0,2.0,93,0.00,,,0.00,weatherlink.com 1.10,2013-05-12 10:55:00,
2013-05-12 07:10:00,40.9,39.0,30.08,SW,228,0.0,2.0,92,0.00,,,0.00,weatherlink.com 1.10,2013-05-12 11:10:00,
2013-05-12 07:25:00,41.7,40.0,30.09,WNW,300,0.0,3.0,92,0.00,,,0.00,weatherlink.com 1.10,2013-05-12 11:25:00,
2013-05-12 07:40:00,44.7,40.0,30.09,West,272,0.0,4.0,83,0.00,,,0.00,weatherlink.com 1.10,2013-05-12 11:40:00,
2013-05-12 07:55:00,45.5,40.0,30.10,West,267,0.0,4.0,81,0.00,,,0.00,weatherlink.com 1.10,2013-05-12 11:55:00,
2013-05-12 08:10:00,46.5,40.0,30.10,WNW,284,1.0,4.0,78,0.00,,,0.00,weatherlink.com 1.10,2013-05-12 12:10:00,
2013-05-12 08:25:00,47.3,40.0,30.10,West,281,0.0,5.0,76,0.00,,,0.00,weatherlink.com 1.10,2013-05-12 12:25:00,
2013-05-12 08:40:00,48.0,40.0,30.10,SW,231,0.0,3.0,75,0.00,,,0.00,weatherlink.com 1.10,2013-05-12 12:40:00,
2013-05-12 08:55:00,48.0,39.0,30.11,West,264,2.0,6.0,71,0.00,,,0.00,weatherlink.com 1.10,2013-05-12 12:55:00,
2013-05-12 09:10:00,48.5,39.0,30.11,SW,215,2.0,6.0,70,0.00,,,0.00,weatherlink.com 1.10,2013-05-12 13:10:00,
2013-05-12 09:25:00,49.5,37.0,30.11,WSW,245,1.0,6.0,63,0.00,,,0.00,weatherlink.com 1.10,2013-05-12 13:25:00,
2013-05-12 09:40:00,49.8,37.0,30.11,NNW,346,5.0,9.0,61,0.00,,,0.00,weatherlink.com 1.10,2013-05-12 13:40:00,
2013-05-12 09:55:00,50.3,37.0,30.11,North,358,2.0,8.0,60,0.00,,,0.00,weatherlink.com 1.10,2013-05-12 13:55:00,
2013-05-12 10:10:00,50.7,37.0,30.11,NNW,328,5.0,7.0,59,0.00,,,0.00,weatherlink.com 1.10,2013-05-12 14:10:00,
2013-05-12 10:25:00,51.0,35.0,30.11,NNW,331,3.0,12.0,55,0.00,,,0.00,weatherlink.com 1.10,2013-05-12 14:25:00,
2013-05-12 10:40:00,51.0,34.0,30.11,North,11,5.0,12.0,53,0.00,,,0.00,weatherlink.com 1.10,2013-05-12 14:40:00,
2013-05-12 10:55:00,51.8,35.0,30.12,SW,233,0.0,6.0,54,0.00,,,0.00,weatherlink.com 1.10,2013-05-12 14:55:00,
2013-05-12 11:10:00,52.2,35.0,30.12,SSW,207,4.0,10.0,52,0.00,,,0.00,weatherlink.com 1.10,2013-05-12 15:10:00,
2013-05-12 11:25:00,52.5,34.0,30.12,West,276,4.0,8.0,50,0.00,,,0.00,weatherlink.com 1.10,2013-05-12 15:25:00,
2013-05-12 11:40:00,53.2,34.0,30.12,SW,231,4.0,8.0,48,0.00,,,0.00,weatherlink.com 1.10,2013-05-12 15:40:00,
2013-05-12 11:55:00,53.3,35.0,30.12,West,269,3.0,12.0,51,0.00,,,0.00,weatherlink.com 1.10,2013-05-12 15:55:00,
2013-05-12 12:10:00,53.9,34.0,30.12,SE,144,3.0,8.0,47,0.00,,,0.00,weatherlink.com 1.10,2013-05-12 16:10:00,
2013-05-12 12:25:00,54.8,35.0,30.12,SW,228,8.0,11.0,48,0.00,,,0.00,weatherlink.com 1.10,2013-05-12 16:25:00,
2013-05-12 12:40:00,54.5,33.0,30.13,NW,312,1.0,8.0,45,0.00,,,0.00,weatherlink.com 1.10,2013-05-12 16:40:00,
2013-05-12 12:55:00,54.6,33.0,30.13,NNE,15,5.0,12.0,44,0.00,,,0.00,weatherlink.com 1.10,2013-05-12 16:55:00,
2013-05-12 13:10:00,55.1,33.0,30.13,WNW,288,4.0,10.0,43,0.00,,,0.00,weatherlink.com 1.10,2013-05-12 17:10:00,
2013-05-12 13:26:00,55.4,34.0,30.14,WSW,246,4.0,9.0,44,0.00,,,0.00,weatherlink.com 1.10,2013-05-12 17:26:00,
2013-05-12 13:41:00,55.1,34.0,30.13,NNW,332,4.0,8.0,45,0.00,,,0.00,weatherlink.com 1.10,2013-05-12 17:41:00,
2013-05-12 13:56:00,55.2,32.0,30.13,SW,232,2.0,9.0,42,0.00,,,0.00,weatherlink.com 1.10,2013-05-12 17:56:00,
2013-05-12 14:11:00,55.4,34.0,30.14,WSW,256,3.0,7.0,45,0.00,,,0.00,weatherlink.com 1.10,2013-05-12 18:11:00,
2013-05-12 14:26:00,54.5,33.0,30.14,NW,311,3.0,10.0,44,0.00,,,0.00,weatherlink.com 1.10,2013-05-12 18:26:00,
2013-05-12 14:41:00,55.7,32.0,30.14,West,271,2.0,12.0,41,0.00,,,0.00,weatherlink.com 1.10,2013-05-12 18:41:00,
2013-05-12 14:56:00,54.5,32.0,30.14,WNW,295,2.0,11.0,43,0.00,,,0.00,weatherlink.com 1.10,2013-05-12 18:56:00,
2013-05-12 15:11:00,55.2,32.0,30.13,West,266,5.0,9.0,42,0.00,,,0.00,weatherlink.com 1.10,2013-05-12 19:11:00,
2013-05-12 15:26:00,55.2,33.0,30.13,SW,219,2.0,12.0,43,0.00,,,0.00,weatherlink.com 1.10,2013-05-12 19:26:00,
2013-05-12 15:41:00,55.1,34.0,30.13,West,262,7.0,11.0,45,0.00,,,0.00,weatherlink.com 1.10,2013-05-12 19:41:00,
2013-05-12 15:56:00,55.1,33.0,30.13,WNW,294,1.0,7.0,44,0.00,,,0.00,weatherlink.com 1.10,2013-05-12 19:56:00,
2013-05-12 16:11:00,55.6,33.0,30.13,West,267,4.0,13.0,43,0.00,,,0.00,weatherlink.com 1.10,2013-05-12 20:11:00,
2013-05-12 16:26:00,55.1,32.0,30.12,West,270,6.0,8.0,42,0.00,,,0.00,weatherlink.com 1.10,2013-05-12 20:26:00,
2013-05-12 16:41:00,55.3,32.0,30.12,NW,315,2.0,11.0,42,0.00,,,0.00,weatherlink.com 1.10,2013-05-12 20:41:00,
2013-05-12 16:56:00,55.0,34.0,30.13,NW,320,2.0,7.0,45,0.00,,,0.00,weatherlink.com 1.10,2013-05-12 20:56:00,
2013-05-12 17:11:00,56.1,34.0,30.12,WNW,285,5.0,7.0,44,0.00,,,0.00,weatherlink.com 1.10,2013-05-12 21:11:00,
2013-05-12 17:26:00,55.8,33.0,30.12,SSW,203,1.0,10.0,42,0.00,,,0.00,weatherlink.com 1.10,2013-05-12 21:26:00,
2013-05-12 17:41:00,57.5,33.0,30.13,NW,322,7.0,11.0,40,0.00,,,0.00,weatherlink.com 1.10,2013-05-12 21:41:00,
2013-05-12 17:56:00,56.8,33.0,30.12,NE,37,1.0,9.0,41,0.00,,,0.00,weatherlink.com 1.10,2013-05-12 21:56:00,
2013-05-12 18:11:00,55.1,33.0,30.12,West,263,0.0,9.0,44,0.00,,,0.00,weatherlink.com 1.10,2013-05-12 22:11:00,
2013-05-12 18:26:00,55.3,34.0,30.12,NNW,340,3.0,10.0,45,0.00,,,0.00,weatherlink.com 1.10,2013-05-12 22:26:00,
2013-05-12 18:41:00,56.1,32.0,30.12,SSW,197,2.0,11.0,40,0.00,,,0.00,weatherlink.com 1.10,2013-05-12 22:41:00,
2013-05-12 18:56:00,56.0,32.0,30.12,WNW,284,0.0,10.0,41,0.00,,,0.00,weatherlink.com 1.10,2013-05-12 22:56:00,
2013-05-12 19:11:00,55.3,32.0,30.12,SW,217,3.0,11.0,42,0.00,,,0.00,weatherlink.com 1.10,2013-05-12 23:11:00,
2013-05-12 19:26:00,54.4,32.0,30.12,North,358,3.0,4.0,43,0.00,,,0.00,weatherlink.com 1.10,2013-05-12 23:26:00,
2013-05-12 19:41:00,53.8,33.0,30.12,WSW,239,1.0,4.0,45,0.00,,,0.00,weatherlink.com 1.10,2013-05-12 23:41:00,
2013-05-12 19:56:00,53.4,33.0,30.12,WNW,295,3.0,5.0,46,0.00,,,0.00,weatherlink.com 1.10,2013-05-12 23:56:00,
2013-05-12 20:11:00,52.9,32.0,30.12,NW,321,0.0,5.0,46,0.00,,,0.00,weatherlink.com 1.10,2013-05-13 00:11:00,
2013-05-12 20:27:00,51.7,35.0,30.13,West,260,0.0,1.0,54,0.00,,,0.00,weatherlink.com 1.10,2013-05-13 00:27:00,
2013-05-12 20:41:00,50.0,36.0,30.14,West,259,0.0,0.0,60,0.00,,,0.00,weatherlink.com 1.10,2013-05-13 00:41:00,
2013-05-12 20:56:00,49.1,37.0,30.14,WSW,242,0.0,2.0,63,0.00,,,0.00,weatherlink.com 1.10,2013-05-13 00:56:00,
2013-05-12 21:11:00,48.3,37.0,30.14,WSW,253,0.0,0.0,64,0.00,,,0.00,weatherlink.com 1.10,2013-05-13 01:11:00,
2013-05-12 21:26:00,48.7,35.0,30.15,WNW,300,0.0,1.0,60,0.00,,,0.00,weatherlink.com 1.10,2013-05-13 01:26:00,
2013-05-12 21:42:00,48.0,34.0,30.15,West,278,0.0,0.0,59,0.00,,,0.00,weatherlink.com 1.10,2013-05-13 01:42:00,
2013-05-12 21:56:00,47.9,35.0,30.16,NW,313,0.0,2.0,62,0.00,,,0.00,weatherlink.com 1.10,2013-05-13 01:56:00,
2013-05-12 22:11:00,47.2,36.0,30.16,WNW,283,0.0,0.0,65,0.00,,,0.00,weatherlink.com 1.10,2013-05-13 02:11:00,
2013-05-12 22:26:00,46.5,36.0,30.17,NW,309,0.0,0.0,68,0.00,,,0.00,weatherlink.com 1.10,2013-05-13 02:26:00,
2013-05-12 22:41:00,46.3,36.0,30.17,West,276,0.0,0.0,68,0.00,,,0.00,weatherlink.com 1.10,2013-05-13 02:41:00,
2013-05-12 22:56:00,46.1,38.0,30.17,West,264,0.0,0.0,74,0.00,,,0.00,weatherlink.com 1.10,2013-05-13 02:56:00,
2013-05-12 23:11:00,44.8,39.0,30.17,West,264,0.0,0.0,79,0.00,,,0.00,weatherlink.com 1.10,2013-05-13 03:11:00,
2013-05-12 23:26:00,43.7,38.0,30.16,West,266,0.0,0.0,81,0.00,,,0.00,weatherlink.com 1.10,2013-05-13 03:26:00,
2013-05-12 23:41:00,43.1,38.0,30.17,West,266,0.0,0.0,81,0.00,,,0.00,weatherlink.com 1.10,2013-05-13 03:41:00,
2013-05-12 23:56:00,43.0,38.0,30.16,West,266,0.0,0.0,82,0.00,,,0.00,weatherlink.com 1.10,2013-05-13 03:56:00,